Time;durP1;ratioP1;P1;durP2;ratioP2;P2;SDS_P1;SDS_P2;PMS_P1;PMS_P2;Temp;Humidity;BMP_temperature;BMP_pressure;BME280_temperature;BME280_humidity;BME280_pressure;Samples;Min_cycle;Max_cycle;Signal;HPM_P1;HPM_P2
2021/07/23 00:01:54;;;;;;;0.20;0.20;;;;;;;;;;5053986;28;20470;-79
2021/07/23 00:04:20;;;;;;;0.15;0.15;;;;;;;;;;5052804;28;20059;-77
2021/07/23 00:06:48;;;;;;;0.20;0.20;;;;;;;;;;5052918;28;20044;-77
2021/07/23 00:09:14;;;;;;;0.20;0.20;;;;;;;;;;5049644;28;20055;-80
2021/07/23 00:11:40;;;;;;;0.10;0.10;;;;;;;;;;5049164;28;20559;-80
2021/07/23 00:14:06;;;;;;;0.17;0.17;;;;;;;;;;5032349;28;20029;-80
2021/07/23 00:16:32;;;;;;;0.10;0.10;;;;;;;;;;5035682;28;20035;-80
2021/07/23 00:18:57;;;;;;;0.10;0.10;;;;;;;;;;5033320;28;20034;-80
2021/07/23 00:21:23;;;;;;;0.10;0.10;;;;;;;;;;5032475;28;20504;-80
2021/07/23 00:23:49;;;;;;;0.10;0.10;;;;;;;;;;5044947;28;20160;-81
2021/07/23 00:26:18;;;;;;;0.20;0.20;;;;;;;;;;5054187;28;20025;-80
2021/07/23 00:28:45;;;;;;;0.10;0.10;;;;;;;;;;5053628;28;20112;-80
2021/07/23 00:31:11;;;;;;;0.10;0.10;;;;;;;;;;5051554;28;20078;-80
2021/07/23 00:33:37;;;;;;;0.10;0.10;;;;;;;;;;5053113;28;20030;-78
2021/07/23 00:36:03;;;;;;;0.13;0.13;;;;;;;;;;5056982;28;20036;-80
2021/07/23 00:38:29;;;;;;;0.10;0.10;;;;;;;;;;5057779;28;20048;-80
2021/07/23 00:40:55;;;;;;;0.10;0.10;;;;;;;;;;5052252;28;20041;-80
2021/07/23 00:43:21;;;;;;;0.20;0.20;;;;;;;;;;5057334;28;20055;-79
2021/07/23 00:45:47;;;;;;;0.10;0.10;;;;;;;;;;5057943;28;20021;-80
2021/07/23 00:48:14;;;;;;;0.10;0.10;;;;;;;;;;5053182;28;20017;-80
2021/07/23 00:50:40;;;;;;;0.10;0.10;;;;;;;;;;5035117;28;20103;-80
2021/07/23 00:53:06;;;;;;;0.10;0.10;;;;;;;;;;5034656;28;20291;-79
2021/07/23 00:55:33;;;;;;;0.10;0.10;;;;;;;;;;5049210;28;20035;-80
2021/07/23 00:58:00;;;;;;;0.10;0.10;;;;;;;;;;5054261;28;20025;-80
2021/07/23 01:00:26;;;;;;;0.10;0.10;;;;;;;;;;5040896;28;20081;-80
2021/07/23 01:02:53;;;;;;;0.05;0.05;;;;;;;;;;5039530;28;20551;-80
2021/07/23 01:05:19;;;;;;;0.05;0.05;;;;;;;;;;5036562;28;20166;-80
2021/07/23 01:07:46;;;;;;;0.10;0.10;;;;;;;;;;5034076;28;20460;-80
2021/07/23 01:10:12;;;;;;;0.10;0.10;;;;;;;;;;5054172;28;20064;-80
2021/07/23 01:12:38;;;;;;;0.10;0.10;;;;;;;;;;5053180;28;20029;-80
2021/07/23 01:15:05;;;;;;;0.10;0.10;;;;;;;;;;5054878;28;20375;-80
2021/07/23 01:17:31;;;;;;;0.10;0.10;;;;;;;;;;5056842;28;20389;-80
2021/07/23 01:20:10;;;;;;;0.20;0.20;;;;;;;;;;5038300;28;20037;-80
2021/07/23 01:22:38;;;;;;;0.10;0.10;;;;;;;;;;5049527;28;20060;-79
2021/07/23 01:25:04;;;;;;;0.10;0.10;;;;;;;;;;5054567;28;20032;-80
2021/07/23 01:27:36;;;;;;;0.08;0.08;;;;;;;;;;5054482;28;20021;-80
2021/07/23 01:30:09;;;;;;;0.10;0.10;;;;;;;;;;5035758;28;20312;-80
2021/07/23 01:32:35;;;;;;;0.10;0.10;;;;;;;;;;5053796;28;20032;-79
2021/07/23 01:35:01;;;;;;;0.10;0.10;;;;;;;;;;5063191;28;20025;-79
2021/07/23 01:37:27;;;;;;;0.20;0.20;;;;;;;;;;5066417;28;20025;-80
2021/07/23 01:39:54;;;;;;;0.10;0.10;;;;;;;;;;5055058;28;20033;-81
2021/07/23 01:42:20;;;;;;;0.10;0.10;;;;;;;;;;5056098;28;20109;-80
2021/07/23 01:44:46;;;;;;;0.10;0.10;;;;;;;;;;5050850;28;20503;-81
2021/07/23 01:47:12;;;;;;;0.20;0.20;;;;;;;;;;5051695;28;20490;-80
2021/07/23 01:49:38;;;;;;;0.10;0.10;;;;;;;;;;5052259;28;20079;-81
2021/07/23 01:52:04;;;;;;;0.10;0.10;;;;;;;;;;5052413;28;20035;-80
2021/07/23 01:54:30;;;;;;;0.10;0.10;;;;;;;;;;5052724;28;20045;-81
2021/07/23 01:56:56;;;;;;;0.10;0.10;;;;;;;;;;5042467;28;20040;-79
2021/07/23 01:59:22;;;;;;;0.10;0.10;;;;;;;;;;5038316;28;20040;-80
2021/07/23 02:01:48;;;;;;;0.20;0.20;;;;;;;;;;5047520;28;20083;-80
2021/07/23 02:04:14;;;;;;;0.20;0.20;;;;;;;;;;5056925;28;20053;-80
2021/07/23 02:06:40;;;;;;;0.03;0.03;;;;;;;;;;5052873;28;20031;-79
2021/07/23 02:09:06;;;;;;;0.10;0.10;;;;;;;;;;5054651;28;20055;-79
2021/07/23 02:11:32;;;;;;;0.10;0.10;;;;;;;;;;5052647;28;20469;-80
2021/07/23 02:14:00;;;;;;;0.10;0.10;;;;;;;;;;5052625;28;20033;-80
2021/07/23 02:16:26;;;;;;;0.10;0.10;;;;;;;;;;5058642;28;20030;-80
2021/07/23 02:18:52;;;;;;;0.10;0.10;;;;;;;;;;5032952;28;20052;-80
2021/07/23 02:21:18;;;;;;;0.13;0.13;;;;;;;;;;5035389;28;20025;-80
2021/07/23 02:23:44;;;;;;;0.10;0.10;;;;;;;;;;5051925;28;20044;-80
2021/07/23 02:26:19;;;;;;;0.10;0.10;;;;;;;;;;5052262;28;20425;-81
2021/07/23 02:28:45;;;;;;;0.10;0.10;;;;;;;;;;5053773;28;20029;-80
2021/07/23 02:31:11;;;;;;;0.08;0.08;;;;;;;;;;5051004;28;20025;-80
2021/07/23 02:33:37;;;;;;;0.10;0.10;;;;;;;;;;5052054;28;20094;-80
2021/07/23 02:36:03;;;;;;;0.10;0.10;;;;;;;;;;5050707;28;20052;-80
2021/07/23 02:38:29;;;;;;;0.10;0.10;;;;;;;;;;5053042;28;20034;-80
2021/07/23 02:40:56;;;;;;;0.10;0.10;;;;;;;;;;5051579;28;20384;-80
2021/07/23 02:43:23;;;;;;;0.10;0.10;;;;;;;;;;5050948;28;20041;-80
2021/07/23 02:45:49;;;;;;;0.10;0.10;;;;;;;;;;5047961;28;20099;-79
2021/07/23 02:48:15;;;;;;;0.03;0.03;;;;;;;;;;5052014;28;20044;-80
2021/07/23 02:50:41;;;;;;;0.10;0.10;;;;;;;;;;5049970;28;20029;-79
2021/07/23 02:53:07;;;;;;;0.10;0.10;;;;;;;;;;5050954;28;20080;-80
2021/07/23 02:55:33;;;;;;;0.10;0.10;;;;;;;;;;5051311;28;20440;-80
2021/07/23 02:57:59;;;;;;;0.10;0.10;;;;;;;;;;5050469;28;20048;-80
2021/07/23 03:00:25;;;;;;;0.10;0.10;;;;;;;;;;5049512;28;20375;-79
2021/07/23 03:02:51;;;;;;;0.10;0.10;;;;;;;;;;5050712;28;20057;-78
2021/07/23 03:05:17;;;;;;;0.10;0.10;;;;;;;;;;5050735;28;20049;-80
2021/07/23 03:07:43;;;;;;;0.10;0.10;;;;;;;;;;5037007;28;20045;-80
2021/07/23 03:10:09;;;;;;;0.10;0.10;;;;;;;;;;5032226;28;20361;-79
2021/07/23 03:12:35;;;;;;;0.10;0.10;;;;;;;;;;5043264;28;20029;-81
2021/07/23 03:15:01;;;;;;;0.13;0.13;;;;;;;;;;5069638;28;20029;-79
2021/07/23 03:17:27;;;;;;;0.10;0.10;;;;;;;;;;5059912;28;20041;-80
2021/07/23 03:19:53;;;;;;;0.10;0.10;;;;;;;;;;5049838;28;20498;-80
2021/07/23 03:22:19;;;;;;;0.20;0.20;;;;;;;;;;5050172;28;20602;-80
2021/07/23 03:24:45;;;;;;;0.13;0.13;;;;;;;;;;5050641;28;20040;-80
2021/07/23 03:27:11;;;;;;;0.10;0.10;;;;;;;;;;5052478;28;20099;-80
2021/07/23 03:29:38;;;;;;;0.10;0.10;;;;;;;;;;5049923;28;20033;-80
2021/07/23 03:32:04;;;;;;;0.20;0.20;;;;;;;;;;5051950;28;20021;-79
2021/07/23 03:34:30;;;;;;;0.10;0.10;;;;;;;;;;5048857;28;20033;-80
2021/07/23 03:36:56;;;;;;;0.75;0.20;;;;;;;;;;5059294;28;20107;-80
2021/07/23 03:39:22;;;;;;;0.30;0.30;;;;;;;;;;5059737;28;20119;-80
2021/07/23 03:41:48;;;;;;;0.10;0.10;;;;;;;;;;5049273;28;20103;-80
2021/07/23 03:44:14;;;;;;;0.10;0.10;;;;;;;;;;5047621;28;20052;-80
2021/07/23 03:46:40;;;;;;;0.10;0.10;;;;;;;;;;5048223;28;20820;-79
2021/07/23 03:49:06;;;;;;;0.10;0.10;;;;;;;;;;5049944;28;20122;-80
2021/07/23 03:51:32;;;;;;;0.20;0.20;;;;;;;;;;5047697;28;20130;-80
2021/07/23 03:53:58;;;;;;;0.10;0.10;;;;;;;;;;5048161;28;20033;-78
2021/07/23 03:56:24;;;;;;;0.20;0.20;;;;;;;;;;5048436;28;20060;-80
2021/07/23 03:58:53;;;;;;;0.15;0.15;;;;;;;;;;5048741;28;20074;-80
2021/07/23 04:01:19;;;;;;;0.10;0.10;;;;;;;;;;5044162;28;20086;-80
2021/07/23 04:03:45;;;;;;;0.13;0.13;;;;;;;;;;5049777;28;20037;-80
2021/07/23 04:06:11;;;;;;;0.10;0.10;;;;;;;;;;5048389;28;20035;-80
2021/07/23 04:08:39;;;;;;;0.10;0.10;;;;;;;;;;5049809;28;20025;-80
2021/07/23 04:11:05;;;;;;;0.20;0.20;;;;;;;;;;5048083;28;20021;-81
2021/07/23 04:13:31;;;;;;;0.20;0.20;;;;;;;;;;5048922;28;20471;-81
2021/07/23 04:15:57;;;;;;;0.10;0.10;;;;;;;;;;5048813;28;20063;-81
2021/07/23 04:18:23;;;;;;;0.17;0.17;;;;;;;;;;5049608;28;20063;-81
2021/07/23 04:20:49;;;;;;;0.20;0.20;;;;;;;;;;5048643;28;20041;-80
2021/07/23 04:23:15;;;;;;;0.20;0.20;;;;;;;;;;5048053;28;20036;-81
2021/07/23 04:25:41;;;;;;;0.20;0.20;;;;;;;;;;5049345;28;20125;-81
2021/07/23 04:28:07;;;;;;;0.10;0.10;;;;;;;;;;5048718;28;20025;-81
2021/07/23 04:30:33;;;;;;;0.17;0.17;;;;;;;;;;5057513;28;20041;-80
2021/07/23 04:32:59;;;;;;;0.20;0.20;;;;;;;;;;5050178;28;20033;-81
2021/07/23 04:35:25;;;;;;;0.20;0.20;;;;;;;;;;5053699;28;20108;-80
2021/07/23 04:37:51;;;;;;;0.15;0.15;;;;;;;;;;5052334;28;20032;-80
2021/07/23 04:40:17;;;;;;;0.10;0.10;;;;;;;;;;5052479;28;20484;-80
2021/07/23 04:42:43;;;;;;;0.20;0.20;;;;;;;;;;5052106;28;20029;-80
2021/07/23 04:45:10;;;;;;;0.10;0.10;;;;;;;;;;5052005;28;20041;-80
2021/07/23 04:47:36;;;;;;;0.20;0.20;;;;;;;;;;5053513;28;20044;-80
2021/07/23 04:50:02;;;;;;;0.15;0.15;;;;;;;;;;5050596;28;20086;-80
2021/07/23 04:52:29;;;;;;;0.20;0.20;;;;;;;;;;5052312;28;20111;-81
2021/07/23 04:54:56;;;;;;;0.10;0.10;;;;;;;;;;5053521;28;20520;-81
2021/07/23 04:57:27;;;;;;;0.15;0.15;;;;;;;;;;5052687;28;20021;-80
2021/07/23 04:59:53;;;;;;;0.20;0.20;;;;;;;;;;5052009;28;20067;-81
2021/07/23 05:02:19;;;;;;;0.10;0.10;;;;;;;;;;5047911;28;20052;-80
2021/07/23 05:04:45;;;;;;;0.10;0.10;;;;;;;;;;5058571;28;20402;-80
2021/07/23 05:07:11;;;;;;;0.10;0.10;;;;;;;;;;5052454;28;20033;-80
2021/07/23 05:09:37;;;;;;;0.20;0.20;;;;;;;;;;5052928;28;20044;-79
2021/07/23 05:12:04;;;;;;;0.10;0.10;;;;;;;;;;5051202;28;20045;-80
2021/07/23 05:14:31;;;;;;;0.10;0.10;;;;;;;;;;5065124;28;20044;-79
2021/07/23 05:16:58;;;;;;;0.10;0.10;;;;;;;;;;5072473;28;20390;-81
2021/07/23 05:19:24;;;;;;;0.20;0.20;;;;;;;;;;5067499;28;20025;-80
2021/07/23 05:21:50;;;;;;;0.13;0.13;;;;;;;;;;5072113;28;20056;-81
2021/07/23 05:24:16;;;;;;;0.10;0.10;;;;;;;;;;5048250;28;20483;-80
2021/07/23 05:26:42;;;;;;;0.20;0.20;;;;;;;;;;5038897;28;20458;-80
2021/07/23 05:29:09;;;;;;;0.20;0.20;;;;;;;;;;5042556;28;20360;-79
2021/07/23 05:31:35;;;;;;;0.20;0.20;;;;;;;;;;5052647;28;20025;-79
2021/07/23 05:34:02;;;;;;;0.20;0.20;;;;;;;;;;5043379;28;20437;-80
2021/07/23 05:36:28;;;;;;;0.20;0.20;;;;;;;;;;5049361;28;20064;-80
2021/07/23 05:38:54;;;;;;;0.20;0.20;;;;;;;;;;5054939;28;20435;-80
2021/07/23 05:41:20;;;;;;;0.10;0.10;;;;;;;;;;5051250;28;20076;-81
2021/07/23 05:43:46;;;;;;;0.20;0.20;;;;;;;;;;5048689;28;20041;-81
2021/07/23 05:46:12;;;;;;;0.30;0.25;;;;;;;;;;5038071;28;20082;-81
2021/07/23 05:48:39;;;;;;;0.20;0.20;;;;;;;;;;5037604;28;20025;-80
2021/07/23 05:51:05;;;;;;;0.28;0.28;;;;;;;;;;5052326;28;20483;-81
2021/07/23 05:53:31;;;;;;;0.17;0.17;;;;;;;;;;5052232;28;20033;-80
2021/07/23 05:56:01;;;;;;;0.20;0.20;;;;;;;;;;5044416;28;20094;-81
2021/07/23 05:58:27;;;;;;;0.20;0.20;;;;;;;;;;5034831;28;20101;-80
2021/07/23 06:00:53;;;;;;;0.17;0.17;;;;;;;;;;5044365;28;20037;-79
2021/07/23 06:03:19;;;;;;;0.20;0.20;;;;;;;;;;5051717;28;20446;-78
2021/07/23 06:05:45;;;;;;;0.10;0.10;;;;;;;;;;5051282;28;20118;-79
2021/07/23 06:08:11;;;;;;;0.17;0.17;;;;;;;;;;5041588;28;20391;-78
2021/07/23 06:10:37;;;;;;;0.20;0.20;;;;;;;;;;5051996;28;20028;-80
2021/07/23 06:13:03;;;;;;;0.10;0.10;;;;;;;;;;5051719;28;20143;-79
2021/07/23 06:15:29;;;;;;;0.17;0.17;;;;;;;;;;5051350;28;20034;-81
2021/07/23 06:17:55;;;;;;;0.10;0.10;;;;;;;;;;5049105;28;20290;-83
2021/07/23 06:20:22;;;;;;;0.10;0.10;;;;;;;;;;5039704;28;20037;-80
2021/07/23 06:22:48;;;;;;;0.20;0.20;;;;;;;;;;5032636;28;20131;-80
2021/07/23 06:25:14;;;;;;;0.20;0.20;;;;;;;;;;5031149;28;20077;-81
2021/07/23 06:27:40;;;;;;;0.63;0.20;;;;;;;;;;5042685;28;20477;-78
2021/07/23 06:30:06;;;;;;;0.20;0.20;;;;;;;;;;5051711;28;20271;-78
2021/07/23 06:32:33;;;;;;;0.17;0.17;;;;;;;;;;5051698;28;20566;-79
2021/07/23 06:34:59;;;;;;;0.10;0.10;;;;;;;;;;5055982;28;20033;-78
2021/07/23 06:37:25;;;;;;;0.10;0.10;;;;;;;;;;5051714;28;20359;-80
2021/07/23 06:39:51;;;;;;;0.10;0.10;;;;;;;;;;5045228;28;20029;-79
2021/07/23 06:42:20;;;;;;;0.20;0.20;;;;;;;;;;5050619;28;20122;-79
2021/07/23 06:44:46;;;;;;;0.10;0.10;;;;;;;;;;5050829;28;20204;-79
2021/07/23 06:47:12;;;;;;;0.20;0.20;;;;;;;;;;5051242;28;20103;-78
2021/07/23 06:49:38;;;;;;;0.10;0.10;;;;;;;;;;5052115;28;20289;-80
2021/07/23 06:52:04;;;;;;;0.30;0.30;;;;;;;;;;5050715;28;20096;-79
2021/07/23 06:54:30;;;;;;;0.17;0.17;;;;;;;;;;5051214;28;20025;-78
2021/07/23 06:56:56;;;;;;;0.10;0.10;;;;;;;;;;5049674;28;20468;-79
2021/07/23 06:59:22;;;;;;;0.10;0.10;;;;;;;;;;5050535;28;20400;-79
2021/07/23 07:01:49;;;;;;;0.20;0.20;;;;;;;;;;5050965;28;20050;-79
2021/07/23 07:04:15;;;;;;;0.13;0.13;;;;;;;;;;5050996;28;20056;-78
2021/07/23 07:06:40;;;;;;;0.10;0.10;;;;;;;;;;5050361;28;20135;-77
2021/07/23 07:09:06;;;;;;;0.20;0.20;;;;;;;;;;5050991;28;20135;-78
2021/07/23 07:11:32;;;;;;;0.10;0.10;;;;;;;;;;5050965;28;20391;-79
2021/07/23 07:13:58;;;;;;;0.10;0.10;;;;;;;;;;5050435;28;20043;-77
2021/07/23 07:16:24;;;;;;;0.20;0.20;;;;;;;;;;5050375;28;20422;-78
2021/07/23 07:18:50;;;;;;;0.10;0.10;;;;;;;;;;5050380;28;20056;-78
2021/07/23 07:21:16;;;;;;;0.10;0.10;;;;;;;;;;5050601;28;20075;-80
2021/07/23 07:23:43;;;;;;;0.10;0.10;;;;;;;;;;5050138;28;20437;-78
2021/07/23 07:26:12;;;;;;;0.20;0.20;;;;;;;;;;5050357;28;20052;-80
2021/07/23 07:28:38;;;;;;;0.20;0.20;;;;;;;;;;5045026;28;20022;-80
2021/07/23 07:31:04;;;;;;;0.20;0.20;;;;;;;;;;5030873;28;20036;-80
2021/07/23 07:33:30;;;;;;;0.20;0.20;;;;;;;;;;5033460;28;20119;-78
2021/07/23 07:35:57;;;;;;;0.10;0.10;;;;;;;;;;5056247;28;20353;-78
2021/07/23 07:38:23;;;;;;;0.15;0.15;;;;;;;;;;5049083;28;20040;-78
2021/07/23 07:40:49;;;;;;;0.20;0.20;;;;;;;;;;5050657;28;20021;-79
2021/07/23 07:43:15;;;;;;;0.30;0.30;;;;;;;;;;5060721;28;20360;-78
2021/07/23 07:45:41;;;;;;;0.13;0.13;;;;;;;;;;5051556;28;20123;-79
2021/07/23 07:48:07;;;;;;;0.27;0.20;;;;;;;;;;5050193;28;20044;-79
2021/07/23 07:50:33;;;;;;;0.13;0.13;;;;;;;;;;5060108;28;20033;-79
2021/07/23 07:53:00;;;;;;;0.17;0.17;;;;;;;;;;5059498;28;20025;-79
2021/07/23 07:55:26;;;;;;;0.10;0.10;;;;;;;;;;5050298;28;20036;-79
2021/07/23 07:57:52;;;;;;;0.20;0.20;;;;;;;;;;5050155;28;20037;-78
2021/07/23 08:00:18;;;;;;;0.13;0.13;;;;;;;;;;5049844;28;20498;-79
2021/07/23 08:02:46;;;;;;;0.20;0.20;;;;;;;;;;5049911;28;20398;-79
2021/07/23 08:05:14;;;;;;;0.10;0.10;;;;;;;;;;5048534;28;20057;-79
2021/07/23 08:07:40;;;;;;;0.20;0.20;;;;;;;;;;5051038;28;20040;-79
2021/07/23 08:10:10;;;;;;;0.20;0.20;;;;;;;;;;5056788;28;20021;-79
2021/07/23 08:12:36;;;;;;;0.10;0.10;;;;;;;;;;5056265;28;20082;-79
2021/07/23 08:15:02;;;;;;;0.20;0.20;;;;;;;;;;5056526;28;20028;-79
2021/07/23 08:17:28;;;;;;;0.10;0.10;;;;;;;;;;5056741;28;20033;-78
2021/07/23 08:19:57;;;;;;;0.25;0.25;;;;;;;;;;5055547;28;20029;-79
2021/07/23 08:22:23;;;;;;;0.10;0.10;;;;;;;;;;5056193;28;20112;-80
2021/07/23 08:24:49;;;;;;;0.10;0.10;;;;;;;;;;5056720;28;20041;-79
2021/07/23 08:27:18;;;;;;;0.10;0.10;;;;;;;;;;5056705;28;20028;-79
2021/07/23 08:29:44;;;;;;;0.17;0.17;;;;;;;;;;5061472;28;20482;-80
2021/07/23 08:32:11;;;;;;;0.30;0.30;;;;;;;;;;5076419;28;20146;-79
2021/07/23 08:34:37;;;;;;;;;;;;;;;;;;5077029;28;20039;-80
2021/07/23 08:37:03;;;;;;;0.10;0.10;;;;;;;;;;5076468;28;19908;-78
2021/07/23 08:39:29;;;;;;;0.20;0.20;;;;;;;;;;5061111;28;20574;-79
2021/07/23 08:41:56;;;;;;;0.20;0.20;;;;;;;;;;5056487;28;20209;-79
2021/07/23 08:44:22;;;;;;;0.10;0.10;;;;;;;;;;5074743;28;20053;-79
2021/07/23 08:46:49;;;;;;;0.10;0.10;;;;;;;;;;5056102;28;20022;-81
2021/07/23 08:49:15;;;;;;;;;;;;;;;;;;5037130;28;20052;-78
2021/07/23 08:51:41;;;;;;;0.10;0.10;;;;;;;;;;5035264;28;20035;-77
2021/07/23 08:54:07;;;;;;;0.17;0.17;;;;;;;;;;5051925;28;20426;-78
2021/07/23 08:56:33;;;;;;;0.10;0.10;;;;;;;;;;5056177;28;20467;-77
2021/07/23 08:58:59;;;;;;;0.10;0.10;;;;;;;;;;5054411;28;20029;-79
2021/07/23 09:01:25;;;;;;;0.20;0.20;;;;;;;;;;5055054;28;20040;-78
2021/07/23 09:03:51;;;;;;;0.13;0.13;;;;;;;;;;5054988;28;20036;-79
2021/07/23 09:06:18;;;;;;;0.17;0.17;;;;;;;;;;5056257;28;20021;-78
2021/07/23 09:08:52;;;;;;;0.10;0.10;;;;;;;;;;5055230;28;20409;-78
2021/07/23 09:11:27;;;;;;;0.20;0.20;;;;;;;;;;5055986;28;20090;-78
2021/07/23 09:14:09;;;;;;;0.10;0.10;;;;;;;;;;5056281;28;20053;-80
2021/07/23 09:16:35;;;;;;;0.13;0.13;;;;;;;;;;5056202;28;20118;-81
2021/07/23 09:19:06;;;;;;;0.10;0.10;;;;;;;;;;5054868;28;20461;-80
2021/07/23 09:21:33;;;;;;;0.20;0.20;;;;;;;;;;5050709;28;20341;-80
2021/07/23 09:23:59;;;;;;;0.10;0.10;;;;;;;;;;5052869;28;20040;-80
2021/07/23 09:26:27;;;;;;;0.10;0.10;;;;;;;;;;5050945;28;20029;-79
2021/07/23 09:28:53;;;;;;;0.10;0.10;;;;;;;;;;5052530;28;20115;-80
2021/07/23 09:31:31;;;;;;;0.10;0.10;;;;;;;;;;5052695;28;20547;-81
2021/07/23 09:34:00;;;;;;;0.10;0.10;;;;;;;;;;5052685;28;20020;-81
2021/07/23 09:36:27;;;;;;;0.10;0.10;;;;;;;;;;5052575;28;20029;-80
2021/07/23 09:38:52;;;;;;;;;;;;;;;;;;5051763;28;20332;-80
2021/07/23 09:41:22;;;;;;;0.10;0.10;;;;;;;;;;5041740;28;19908;-79
2021/07/23 09:43:56;;;;;;;0.10;0.10;;;;;;;;;;5031852;28;20468;-79
2021/07/23 09:46:24;;;;;;;0.10;0.10;;;;;;;;;;5030341;28;20033;-79
2021/07/23 09:48:51;;;;;;;0.20;0.20;;;;;;;;;;5032825;28;20121;-79
2021/07/23 09:51:18;;;;;;;0.10;0.10;;;;;;;;;;5033095;28;20038;-80
2021/07/23 09:53:44;;;;;;;0.22;0.10;;;;;;;;;;5033273;28;20459;-80
2021/07/23 09:56:11;;;;;;;0.10;0.10;;;;;;;;;;5035477;28;20029;-82
2021/07/23 09:58:38;;;;;;;0.20;0.20;;;;;;;;;;5052386;28;20035;-83
2021/07/23 10:01:08;;;;;;;0.10;0.10;;;;;;;;;;5046262;28;20142;-82
2021/07/23 10:03:35;;;;;;;0.10;0.10;;;;;;;;;;5033410;28;20143;-83
2021/07/23 10:06:06;;;;;;;0.15;0.15;;;;;;;;;;5032669;28;20065;-84
2021/07/23 10:08:47;;;;;;;0.10;0.10;;;;;;;;;;5033756;28;20048;-83
2021/07/23 10:11:13;;;;;;;0.10;0.10;;;;;;;;;;5038695;28;20069;-83
2021/07/23 10:13:40;;;;;;;0.10;0.10;;;;;;;;;;5053497;28;20028;-85
2021/07/23 10:16:06;;;;;;;;;;;;;;;;;;5054524;28;20084;-83
2021/07/23 10:18:34;;;;;;;0.20;0.20;;;;;;;;;;5054711;28;19909;-84
2021/07/23 10:21:00;;;;;;;0.10;0.10;;;;;;;;;;5047537;28;20038;-84
2021/07/23 10:23:27;;;;;;;0.10;0.10;;;;;;;;;;5032397;28;20087;-84
2021/07/23 10:25:54;;;;;;;0.10;0.10;;;;;;;;;;5047635;28;20101;-84
2021/07/23 10:28:42;;;;;;;0.10;0.10;;;;;;;;;;5052726;28;20074;-82
2021/07/23 10:31:17;;;;;;;0.10;0.10;;;;;;;;;;5052259;28;20123;-83
2021/07/23 10:33:56;;;;;;;0.10;0.10;;;;;;;;;;5051935;28;20560;-83
2021/07/23 10:36:31;;;;;;;0.10;0.10;;;;;;;;;;5037042;28;20029;-82
2021/07/23 10:39:06;;;;;;;0.10;0.10;;;;;;;;;;5032428;28;20321;-82
2021/07/23 10:41:32;;;;;;;0.10;0.10;;;;;;;;;;5043304;28;20444;-81
2021/07/23 10:43:58;;;;;;;0.10;0.10;;;;;;;;;;5049166;28;20564;-84
2021/07/23 10:46:43;;;;;;;0.20;0.20;;;;;;;;;;5038997;28;20045;-83
2021/07/23 10:49:32;;;;;;;0.13;0.13;;;;;;;;;;5031784;28;20021;-78
2021/07/23 10:52:01;;;;;;;0.15;0.15;;;;;;;;;;5031147;28;20279;-83
2021/07/23 10:54:32;;;;;;;0.10;0.10;;;;;;;;;;5031815;28;20029;-81
2021/07/23 10:59:39;;;;;;;0.10;0.10;;;;;;;;;;5051331;28;20098;-80
2021/07/23 11:02:05;;;;;;;0.13;0.13;;;;;;;;;;5041266;28;20346;-80
2021/07/23 11:04:32;;;;;;;0.20;0.20;;;;;;;;;;5030680;28;20092;-81
2021/07/23 11:07:02;;;;;;;0.20;0.20;;;;;;;;;;5031167;28;20441;-80
2021/07/23 11:09:31;;;;;;;0.20;0.20;;;;;;;;;;5031115;28;20025;-82
2021/07/23 11:12:18;;;;;;;0.10;0.10;;;;;;;;;;5050841;28;20123;-79
2021/07/23 11:14:50;;;;;;;0.15;0.15;;;;;;;;;;5050800;28;20025;-81
2021/07/23 11:17:16;;;;;;;0.17;0.17;;;;;;;;;;5050953;28;20048;-81
2021/07/23 11:19:46;;;;;;;0.20;0.20;;;;;;;;;;5049445;28;20090;-82
2021/07/23 11:22:12;;;;;;;0.10;0.10;;;;;;;;;;5050130;28;20037;-81
2021/07/23 11:24:39;;;;;;;0.22;0.22;;;;;;;;;;5049745;28;20048;-81
2021/07/23 11:27:05;;;;;;;0.30;0.30;;;;;;;;;;5047761;28;20483;-80
2021/07/23 11:29:37;;;;;;;0.20;0.20;;;;;;;;;;5048491;28;20079;-81
2021/07/23 11:32:08;;;;;;;0.10;0.10;;;;;;;;;;5046481;28;20029;-81
2021/07/23 11:34:44;;;;;;;0.40;0.10;;;;;;;;;;5049788;28;20110;-82
2021/07/23 11:37:10;;;;;;;;;;;;;;;;;;5051156;28;20029;-81
2021/07/23 11:39:47;;;;;;;0.13;0.13;;;;;;;;;;5050465;28;19904;-82
2021/07/23 11:42:13;;;;;;;0.20;0.20;;;;;;;;;;5049376;28;20494;-81
2021/07/23 11:44:49;;;;;;;0.15;0.15;;;;;;;;;;5050037;28;20052;-82
2021/07/23 11:47:15;;;;;;;0.10;0.10;;;;;;;;;;5049931;28;20449;-81
2021/07/23 11:49:41;;;;;;;0.17;0.17;;;;;;;;;;5050433;28;20028;-81
2021/07/23 11:52:07;;;;;;;0.10;0.10;;;;;;;;;;5043213;28;20472;-81
2021/07/23 11:54:33;;;;;;;0.20;0.20;;;;;;;;;;5049834;28;20060;-81
2021/07/23 11:57:03;;;;;;;0.30;0.22;;;;;;;;;;5048020;28;20025;-81
2021/07/23 11:59:36;;;;;;;0.17;0.17;;;;;;;;;;5043466;28;20025;-80
2021/07/23 12:02:07;;;;;;;0.10;0.10;;;;;;;;;;5040423;28;20090;-82
2021/07/23 12:04:33;;;;;;;0.35;0.35;;;;;;;;;;5033342;28;20064;-81
2021/07/23 12:06:59;;;;;;;0.22;0.22;;;;;;;;;;5030815;28;20068;-82
2021/07/23 12:09:26;;;;;;;0.20;0.20;;;;;;;;;;5030177;28;20021;-82
2021/07/23 12:11:53;;;;;;;0.30;0.30;;;;;;;;;;5033560;28;20020;-81
2021/07/23 12:14:19;;;;;;;;;;;;;;;;;;5048141;28;20033;-80
2021/07/23 12:16:45;;;;;;;;;;;;;;;;;;5031702;28;20379;-81
2021/07/23 12:19:16;;;;;;;0.30;0.30;;;;;;;;;;5033546;28;20381;-82
2021/07/23 12:21:43;;;;;;;0.40;0.40;;;;;;;;;;5044821;28;20387;-81
2021/07/23 12:24:10;;;;;;;0.38;0.38;;;;;;;;;;5049234;28;20025;-82
2021/07/23 12:26:40;;;;;;;0.40;0.40;;;;;;;;;;5047949;28;20226;-81
2021/07/23 12:29:07;;;;;;;0.40;0.40;;;;;;;;;;5046752;28;20028;-82
2021/07/23 12:31:34;;;;;;;0.40;0.40;;;;;;;;;;5038151;28;20070;-82
2021/07/23 12:34:00;;;;;;;0.47;0.47;;;;;;;;;;5028109;28;20041;-81
2021/07/23 12:36:26;;;;;;;0.40;0.40;;;;;;;;;;5029435;28;20087;-81
2021/07/23 12:38:52;;;;;;;;;;;;;;;;;;5030319;28;20022;-81
2021/07/23 12:41:25;;;;;;;0.40;0.40;;;;;;;;;;5031113;28;19905;-81
2021/07/23 12:44:04;;;;;;;0.50;0.50;;;;;;;;;;5048842;28;20052;-83
2021/07/23 12:46:31;;;;;;;0.52;0.52;;;;;;;;;;5048862;28;20033;-83
2021/07/23 12:49:07;;;;;;;0.50;0.50;;;;;;;;;;5049881;28;20475;-82
2021/07/23 12:51:33;;;;;;;0.60;0.60;;;;;;;;;;5032215;28;20399;-82
2021/07/23 12:53:59;;;;;;;0.63;0.63;;;;;;;;;;5030037;28;20026;-82
2021/07/23 12:56:32;;;;;;;0.50;0.50;;;;;;;;;;5030148;28;20116;-83
2021/07/23 12:58:59;;;;;;;0.50;0.50;;;;;;;;;;5051294;28;20045;-83
2021/07/23 13:01:25;;;;;;;0.60;0.60;;;;;;;;;;5050901;28;20029;-81
2021/07/23 13:03:52;;;;;;;0.68;0.68;;;;;;;;;;5050632;28;20049;-82
2021/07/23 13:06:21;;;;;;;0.70;0.70;;;;;;;;;;5063521;28;20068;-82
2021/07/23 13:08:52;;;;;;;0.70;0.70;;;;;;;;;;5052939;28;20073;-81
2021/07/23 13:11:20;;;;;;;0.90;0.90;;;;;;;;;;5056651;28;20024;-81
2021/07/23 13:13:46;;;;;;;0.70;0.70;;;;;;;;;;5040340;28;20032;-81
2021/07/23 13:16:14;;;;;;;0.60;0.60;;;;;;;;;;5032755;28;20372;-83
2021/07/23 13:18:41;;;;;;;0.90;0.90;;;;;;;;;;5040447;28;20036;-82
2021/07/23 13:21:09;;;;;;;0.80;0.80;;;;;;;;;;5051142;28;20041;-82
2021/07/23 13:23:35;;;;;;;0.77;0.77;;;;;;;;;;5052884;28;20045;-83
2021/07/23 13:26:01;;;;;;;0.90;0.90;;;;;;;;;;5033486;28;20510;-82
2021/07/23 13:28:28;;;;;;;0.90;0.90;;;;;;;;;;5033908;28;20037;-82
2021/07/23 13:30:54;;;;;;;0.90;0.90;;;;;;;;;;5035718;28;20029;-81
2021/07/23 13:33:20;;;;;;;1.00;1.00;;;;;;;;;;5052486;28;20029;-83
2021/07/23 13:35:48;;;;;;;0.80;0.80;;;;;;;;;;5053328;28;20108;-80
2021/07/23 13:38:18;;;;;;;0.80;0.80;;;;;;;;;;5049370;28;21775;-82
2021/07/23 13:40:44;;;;;;;0.80;0.80;;;;;;;;;;5051783;28;20359;-80
2021/07/23 13:43:13;;;;;;;0.85;0.85;;;;;;;;;;5051564;28;20021;-81
2021/07/23 13:45:42;;;;;;;0.95;0.95;;;;;;;;;;5051002;28;20110;-84
2021/07/23 13:48:08;;;;;;;0.90;0.90;;;;;;;;;;5050031;28;20054;-82
2021/07/23 13:50:34;;;;;;;0.90;0.90;;;;;;;;;;5040443;28;20049;-82
2021/07/23 13:53:00;;;;;;;0.80;0.80;;;;;;;;;;5032367;28;20463;-80
2021/07/23 13:55:26;;;;;;;0.90;0.90;;;;;;;;;;5032046;28;20029;-82
2021/07/23 13:57:52;;;;;;;0.90;0.90;;;;;;;;;;5031997;28;20026;-82
2021/07/23 14:00:18;;;;;;;0.80;0.80;;;;;;;;;;5049535;28;20048;-82
2021/07/23 14:02:46;;;;;;;1.00;1.00;;;;;;;;;;5058409;28;20493;-80
2021/07/23 14:05:12;;;;;;;1.00;1.00;;;;;;;;;;5034795;28;20095;-81
2021/07/23 14:07:38;;;;;;;1.10;1.10;;;;;;;;;;5051979;28;20029;-80
2021/07/23 14:10:05;;;;;;;0.60;0.60;;;;;;;;;;5050425;28;20041;-82
2021/07/23 14:12:31;;;;;;;0.93;0.93;;;;;;;;;;5052024;28;20052;-81
2021/07/23 14:14:58;;;;;;;1.00;1.00;;;;;;;;;;5051376;28;20021;-80
2021/07/23 14:17:24;;;;;;;1.10;1.10;;;;;;;;;;5031977;28;20043;-79
2021/07/23 14:19:50;;;;;;;1.08;1.08;;;;;;;;;;5042762;28;20029;-80
2021/07/23 14:22:16;;;;;;;1.08;1.08;;;;;;;;;;5048133;28;20021;-81
2021/07/23 14:24:42;;;;;;;1.10;1.10;;;;;;;;;;5034200;28;20086;-80
2021/07/23 14:27:08;;;;;;;1.10;1.10;;;;;;;;;;5050682;28;20043;-82
2021/07/23 14:29:34;;;;;;;1.00;1.00;;;;;;;;;;5045690;28;20395;-82
2021/07/23 14:32:01;;;;;;;0.30;0.30;;;;;;;;;;5043803;28;20430;-82
2021/07/23 14:34:27;;;;;;;0.40;0.40;;;;;;;;;;5033245;28;20115;-81
2021/07/23 14:36:53;;;;;;;0.30;0.30;;;;;;;;;;5031712;28;20057;-80
2021/07/23 14:39:19;;;;;;;0.20;0.20;;;;;;;;;;5031532;28;20472;-81
2021/07/23 14:41:45;;;;;;;0.20;0.20;;;;;;;;;;5030454;28;20446;-81
2021/07/23 14:44:11;;;;;;;0.30;0.30;;;;;;;;;;5031055;28;20051;-82
2021/07/23 14:46:37;;;;;;;0.70;0.70;;;;;;;;;;5037203;28;20630;-80
2021/07/23 14:49:03;;;;;;;0.82;0.82;;;;;;;;;;5050931;28;20104;-80